Main page
METAR-TAF:

METAR-TAF

Airports :

Scampton, England

RAF Scampton

latitude: 53-18-27N, longitude: 000-33-03W, elevation: 62 m

Current weather observation

The report was made 1 hour and 8 minutes ago, at 12:50 UTC
Wind 14 kt from the West
Temperature 19°C
Humidity 68%
Pressure 1010 hPa
Visibility 10 km or more
Scattered clouds at a height of 2800 ft
Broken clouds at a height of 8000 ft

METAR: EGXP 241250Z 26014KT 9999 SCT028 BKN080 19/13 Q1010 BLU

Time: 14:58 (13:58 UTC)

Forecast

The report was made 3 hours and 37 minutes ago, at 10:21 UTC
Forecast valid from 24 at 12 UTC to 24 at 17 UTC
Wind 15 kt from the West
Visibility 10 km or more
Broken clouds at a height of 3000 ft

TAF: EGXP 241021Z 2412/2417 26015KT 9999 BKN030

Weather observations and forecasts of more than 4000 airports (METAR and TAF reports).

The available stations are represented by yellow and red dots on the map.

Hover mouse over dot to see the name of the station.

Then click to see weather observations and forecasts.

To change the map : click on the green buttons with a black cross to zoom in, on the green button with a dash to zoom out, or on the green arrows for adjacent maps.


METAR-TAF: